Hornsby, TN (38044)

2:26 AM CST on December 05, 2016 (GMT -0600)
odie home station | | Change Station

Elev 440 ft 35.29 °N, 89.02 °W | Updated 13 seconds ago

Overcast
Overcast
42.1 °F
Feels Like 42 °F
N
2.3
Wind Variable Wind from NNE
Gusts 2.3 mph

Today
High -- | Low -- °F
--% Chance of Precip.
Yesterday
High -- | Low -- °F
Precip. -- in
Pressure 30.03 in
Visibility 10.0 miles
Clouds Mostly Cloudy 700 ft
Overcast 1100 ft
Windchill 42 °F
Dew Point 39 °F
Humidity 88%
Rainfall 0.00 in
Snow Depth Not available.
6:49 AM 4:42 PM
Waxing Crescent, 29% visible
METAR KCRX 050815Z AUTO 36005KT 10SM BKN007 OVC011 08/06 A3003 RMK AO2
Pressure 30.03 in
Visibility 10.0 miles
Clouds Mostly Cloudy 700 ft
Overcast 1100 ft
Windchill 42 °F
Dew Point 39 °F
Humidity 88%
Rainfall 0.00 in
Snow Depth Not available.
6:49 AM 4:42 PM
Waxing Crescent, 29% visible
METAR KCRX 050815Z AUTO 36005KT 10SM BKN007 OVC011 08/06 A3003 RMK AO2

10-Day Weather Forecast

Almanac

Astronomy

Dec. 05, 2016 Rise Set
Actual Time
Civil Twilight
Nautical Twilight
Astronomical Twilight
Moon
Length of Visible Light
Length of Day
Tomorrow will be .
, % of the Moon is Illuminated

Today's Extremes

State Highs State Lows

Community

WunderPhotos

Upload Photos

1,955,771 photos uploaded!

WunderBlog® & News

Nearby

Air Quality

  Air Quality AQ Index Pollutant
Not available.

Snow Depth

Station Depth Elevation

Earthquake Activity

City Distance Mag. Time & Date
Minimum magnitude displayed is 2.5.

Coastal Water Temperatures

Place Temperature

Stations

Nearby Weather Stations

Station Location Temp. Windchill Dew Point Humidity Wind Precip. Elev Updated Type
                   

Watches & Warnings

There are currently no watches in effect.